Terminal Aerodrome Forecast
Issued by NWS Sterling, VA

Current Version | Previous Version | Text Only | Print | Product List | Glossary Off
Versions: 1 2 3 4 5 6 7 8 9 10 11 12 13 14 15 16 17 18 19

232
FTUS41 KLWX 221618 AAD
TAFDCA
TAF AMD
KDCA 221618Z 2216/2312 36008KT 3SM -RA BKN010 OVC025
     FM222100 35008KT 3SM -RA BR BKN008 OVC025
     FM230000 36006KT 3SM BR BKN008 OVC025
     FM230300 35005KT 3SM BR BKN020 OVC025
     FM230400 35005KT 3SM BR BKN015 OVC025
     FM230600 36006KT P6SM SCT025 OVC035=

USA.gov is the U.S. government's official web portal to all federal, state and local government web resources and services.